createdAt,value
2022-09-15T00:01:36.869Z,14.17
2022-09-15T00:04:05.679Z,14.22
2022-09-15T00:06:33.533Z,14.19
2022-09-15T00:11:52.633Z,14.12
2022-09-15T00:19:46.429Z,14.39
2022-09-15T00:22:15.119Z,14.36
2022-09-15T00:24:42.907Z,14.38
2022-09-15T00:27:10.839Z,14.39
2022-09-15T00:29:38.994Z,14.48
2022-09-15T00:32:06.920Z,14.39
2022-09-15T00:34:39.824Z,14.48
2022-09-15T00:37:06.728Z,14.35
2022-09-15T00:39:34.533Z,14.39
2022-09-15T00:42:04.345Z,14.46
2022-09-15T00:44:35.522Z,14.28
2022-09-15T00:47:18.655Z,14.49
2022-09-15T00:50:17.770Z,14.42
2022-09-15T00:52:50.246Z,14.55
2022-09-15T00:55:28.547Z,14.49
2022-09-15T00:58:04.014Z,14.62
2022-09-15T01:00:33.980Z,14.55
2022-09-15T01:03:06.723Z,14.59
2022-09-15T01:05:51.441Z,14.56
2022-09-15T01:08:38.840Z,14.49
2022-09-15T01:11:06.945Z,14.63
2022-09-15T01:13:36.649Z,14.66
2022-09-15T01:16:13.567Z,14.69
2022-09-15T01:19:11.845Z,14.69
2022-09-15T01:21:58.108Z,14.73
2022-09-15T01:25:08.065Z,14.69
2022-09-15T01:28:15.596Z,14.70
2022-09-15T01:31:26.764Z,14.63
2022-09-15T01:34:16.914Z,14.65
2022-09-15T01:36:59.365Z,14.66
2022-09-15T01:39:37.289Z,14.67
2022-09-15T01:42:09.714Z,14.70
2022-09-15T01:44:46.982Z,14.62
2022-09-15T01:47:20.972Z,14.73
2022-09-15T01:53:18.911Z,14.72
2022-09-15T01:59:16.268Z,14.59
2022-09-15T02:01:51.881Z,14.53
2022-09-15T02:04:36.777Z,14.59
2022-09-15T02:07:20.519Z,14.60
2022-09-15T02:10:02.932Z,14.62
2022-09-15T02:12:37.117Z,14.65
2022-09-15T02:15:10.667Z,14.60
2022-09-15T02:17:44.080Z,14.59
2022-09-15T02:20:25.427Z,14.57
2022-09-15T02:23:00.781Z,14.55
2022-09-15T02:25:36.938Z,14.57
2022-09-15T02:28:08.678Z,14.57
2022-09-15T02:30:41.308Z,14.46
2022-09-15T02:33:14.297Z,14.56
2022-09-15T02:38:39.505Z,14.66
2022-09-15T02:41:11.770Z,14.69
2022-09-15T02:43:46.888Z,14.66
2022-09-15T02:46:42.575Z,14.72
2022-09-15T02:49:10.956Z,14.77
2022-09-15T02:51:38.731Z,14.57
2022-09-15T02:54:06.916Z,14.56
2022-09-15T02:56:39.560Z,14.66
2022-09-15T02:59:06.676Z,14.69
2022-09-15T03:01:35.033Z,14.72
2022-09-15T03:04:13.896Z,14.72
2022-09-15T03:06:40.576Z,14.69
2022-09-15T03:09:13.560Z,14.66
2022-09-15T03:11:40.524Z,14.60
2022-09-15T03:14:32.733Z,14.63
2022-09-15T03:17:05.676Z,14.65
2022-09-15T03:19:32.590Z,14.57
2022-09-15T03:22:00.637Z,14.62
2022-09-15T03:24:28.695Z,14.67
2022-09-15T03:27:20.693Z,14.65
2022-09-15T03:29:48.695Z,14.59
2022-09-15T03:32:16.591Z,14.67
2022-09-15T03:37:36.730Z,14.65
2022-09-15T03:40:30.938Z,14.66
2022-09-15T03:42:58.730Z,14.55
2022-09-15T03:45:26.588Z,14.62
2022-09-15T03:47:59.624Z,14.56
2022-09-15T03:50:26.602Z,14.63
2022-09-15T03:53:44.813Z,14.60
2022-09-15T03:56:28.461Z,14.52
2022-09-15T03:58:57.403Z,14.57
2022-09-15T04:01:24.736Z,14.63
2022-09-15T04:06:53.701Z,14.51
2022-09-15T04:12:18.699Z,14.43
2022-09-15T04:14:50.537Z,14.45
2022-09-15T04:17:42.532Z,14.39
2022-09-15T04:20:10.665Z,14.43
2022-09-15T04:23:02.803Z,14.49
2022-09-15T04:26:07.401Z,14.42
2022-09-15T04:28:38.195Z,14.29
2022-09-15T04:31:11.429Z,14.38
2022-09-15T04:33:40.553Z,14.42
2022-09-15T04:36:18.220Z,14.40
2022-09-15T04:38:47.270Z,14.48
2022-09-15T04:41:15.422Z,14.45
2022-09-15T04:43:43.403Z,14.46
2022-09-15T04:46:12.614Z,14.46
2022-09-15T04:51:37.227Z,14.38
2022-09-15T04:54:04.728Z,14.30
2022-09-15T04:56:37.860Z,14.33
2022-09-15T04:59:09.825Z,14.42
2022-09-15T05:01:36.609Z,14.48
2022-09-15T05:04:05.056Z,14.46
2022-09-15T05:06:34.968Z,14.48
2022-09-15T05:09:09.708Z,14.51
2022-09-15T05:11:38.819Z,14.49
2022-09-15T05:14:08.027Z,14.38
2022-09-15T05:16:36.647Z,14.51
2022-09-15T05:19:09.923Z,14.39
2022-09-15T05:21:36.597Z,14.42
2022-09-15T05:24:09.760Z,14.45
2022-09-15T05:26:48.581Z,14.32
2022-09-15T05:29:23.560Z,14.33
2022-09-15T05:31:52.545Z,14.40
2022-09-15T05:34:20.941Z,14.40
2022-09-15T05:37:14.899Z,14.51
2022-09-15T05:40:45.073Z,14.35
2022-09-15T05:43:13.067Z,14.32
2022-09-15T05:45:44.071Z,14.46
2022-09-15T05:48:12.729Z,14.46
2022-09-15T05:53:41.002Z,14.40
2022-09-15T05:56:17.284Z,14.43
2022-09-15T05:58:46.813Z,14.46
2022-09-15T06:01:46.942Z,14.45
2022-09-15T06:04:14.584Z,14.49
2022-09-15T06:07:06.905Z,14.26
2022-09-15T06:09:34.929Z,14.36
2022-09-15T06:12:07.753Z,14.40
2022-09-15T06:14:34.871Z,14.42
2022-09-15T06:17:02.576Z,14.36
2022-09-15T06:19:30.680Z,14.48
2022-09-15T06:24:50.897Z,14.55
2022-09-15T06:27:22.694Z,14.59
2022-09-15T06:32:47.510Z,14.69
2022-09-15T06:35:17.705Z,14.70
2022-09-15T06:37:46.346Z,14.70
2022-09-15T06:40:14.995Z,14.77
2022-09-15T06:42:42.683Z,14.76
2022-09-15T06:48:23.343Z,14.80
2022-09-15T06:53:45.266Z,14.81
2022-09-15T06:59:06.833Z,14.84
2022-09-15T07:01:38.797Z,14.80
2022-09-15T07:04:09.875Z,14.84
2022-09-15T07:06:38.554Z,14.74
2022-09-15T07:09:06.974Z,14.77
2022-09-15T07:11:34.726Z,14.98
2022-09-15T07:14:04.993Z,15.08
2022-09-15T07:16:33.168Z,14.94
2022-09-15T07:19:03.224Z,15.10
2022-09-15T07:22:01.601Z,15.15
2022-09-15T07:24:28.675Z,15.25
2022-09-15T07:29:48.728Z,15.53
2022-09-15T07:32:19.529Z,15.60
2022-09-15T07:34:56.479Z,15.50
2022-09-15T07:37:26.722Z,15.45
2022-09-15T07:40:06.314Z,15.35
2022-09-15T07:42:48.356Z,15.28
2022-09-15T07:45:16.728Z,15.52
2022-09-15T07:47:44.639Z,15.53
2022-09-15T07:50:14.480Z,15.53
2022-09-15T07:52:54.358Z,15.74
2022-09-15T07:55:27.537Z,16.04
2022-09-15T07:58:02.915Z,16.05
2022-09-15T08:00:31.167Z,16.01
2022-09-15T08:03:01.101Z,16.05
2022-09-15T08:08:46.272Z,16.53
2022-09-15T08:11:23.787Z,16.73
2022-09-15T08:13:53.647Z,16.84
2022-09-15T08:16:35.847Z,16.87
2022-09-15T08:19:04.796Z,16.97
2022-09-15T08:21:42.720Z,17.18
2022-09-15T08:24:19.459Z,17.46
2022-09-15T08:26:48.793Z,17.39
2022-09-15T08:32:13.193Z,17.77
2022-09-15T08:41:27.779Z,18.18
2022-09-15T08:44:26.921Z,18.12
2022-09-15T09:39:58.114Z,19.04
2022-09-15T09:42:32.541Z,19.11
2022-09-15T09:45:00.941Z,18.94
2022-09-15T09:47:35.120Z,19.11
2022-09-15T09:50:03.183Z,18.87
2022-09-15T09:52:37.186Z,18.48
2022-09-15T09:55:22.132Z,18.48
2022-09-15T09:58:17.731Z,18.22
2022-09-15T10:00:44.748Z,18.26
2022-09-15T10:03:29.394Z,18.21
2022-09-15T10:06:19.062Z,18.15
2022-09-15T10:09:00.077Z,18.03
2022-09-15T10:11:52.348Z,17.93
2022-09-15T10:17:41.465Z,17.87
2022-09-15T10:20:25.564Z,17.89
2022-09-15T10:26:00.120Z,17.97
2022-09-15T10:31:32.788Z,17.96
2022-09-15T10:34:27.848Z,17.91
2022-09-15T10:37:05.019Z,17.86
2022-09-15T10:39:56.779Z,18.12
2022-09-15T10:42:52.931Z,18.11
2022-09-15T10:45:34.902Z,17.86
2022-09-15T13:01:57.905Z,17.61
2022-09-15T14:48:49.246Z,15.67
2022-09-15T16:23:51.416Z,14.98
2022-09-15T16:39:20.573Z,15.10
2022-09-15T16:41:50.330Z,15.01
2022-09-15T17:10:16.493Z,14.46
2022-09-15T17:15:35.902Z,14.42
2022-09-15T17:18:04.233Z,14.36
2022-09-15T17:23:24.472Z,14.24
2022-09-15T17:25:59.348Z,14.19
2022-09-15T17:28:30.162Z,14.12
2022-09-15T17:31:28.163Z,14.02
2022-09-15T17:33:57.641Z,14.01
2022-09-15T17:36:24.863Z,13.95
2022-09-15T17:38:52.898Z,13.76
2022-09-15T17:41:23.236Z,13.90
2022-09-15T18:57:07.326Z,12.73
2022-09-15T18:59:36.338Z,12.71
2022-09-15T19:02:05.050Z,12.84
2022-09-15T19:04:43.918Z,12.76
2022-09-15T19:07:11.439Z,12.80
2022-09-15T19:09:38.758Z,12.79
2022-09-15T19:12:10.762Z,12.77
2022-09-15T19:14:46.027Z,12.81
2022-09-15T19:19:58.449Z,12.83
2022-09-15T19:22:30.553Z,12.73
2022-09-15T19:24:58.547Z,12.71
2022-09-15T19:27:26.591Z,12.77
2022-09-15T19:29:56.374Z,12.73
2022-09-15T19:32:24.849Z,12.66
2022-09-15T19:34:52.910Z,12.69
2022-09-15T19:43:00.790Z,12.79
2022-09-15T19:45:28.813Z,12.77
2022-09-15T19:47:56.644Z,12.71
2022-09-15T19:53:40.490Z,12.60
2022-09-15T19:56:14.544Z,12.66
2022-09-15T20:01:39.419Z,12.70
2022-09-15T20:04:13.595Z,12.63
2022-09-15T20:06:41.319Z,12.64
2022-09-15T20:09:15.836Z,12.64
2022-09-15T20:14:38.911Z,12.66
2022-09-15T20:17:06.750Z,12.67
2022-09-15T20:19:34.920Z,12.63
2022-09-15T20:22:02.814Z,12.70
2022-09-15T20:24:31.063Z,12.66
2022-09-15T20:26:59.251Z,12.63
2022-09-15T20:29:26.658Z,12.70
2022-09-15T20:31:54.502Z,12.69
2022-09-15T20:34:22.711Z,12.64
2022-09-15T20:36:51.045Z,12.69
2022-09-15T20:39:22.315Z,12.71
2022-09-15T20:44:42.483Z,12.64
2022-09-15T20:47:11.028Z,12.63
2022-09-15T20:49:39.271Z,12.57
2022-09-15T20:52:06.638Z,12.56
2022-09-15T20:54:34.595Z,12.52
2022-09-15T20:57:07.441Z,12.52
2022-09-15T20:59:34.560Z,12.49
2022-09-15T21:02:07.394Z,12.32
2022-09-15T21:04:34.863Z,12.50
2022-09-15T21:07:02.600Z,12.42
2022-09-15T21:09:55.954Z,12.50
2022-09-15T21:12:24.881Z,12.49
2022-09-15T21:14:52.588Z,12.56
2022-09-15T21:17:20.949Z,12.59
2022-09-15T21:19:48.503Z,12.55
2022-09-15T21:22:16.679Z,12.46
2022-09-15T21:24:44.744Z,12.49
2022-09-15T21:27:28.360Z,12.35
2022-09-15T21:30:21.673Z,12.56
2022-09-15T21:32:59.723Z,12.43
2022-09-15T21:35:27.423Z,12.38
2022-09-15T21:37:58.739Z,12.41
2022-09-15T21:40:37.718Z,12.36
2022-09-15T21:43:04.622Z,12.45
2022-09-15T21:45:37.410Z,12.42
2022-09-15T21:48:04.616Z,12.31
2022-09-15T21:50:32.812Z,12.42
2022-09-15T21:53:09.620Z,12.39
2022-09-15T21:55:37.878Z,12.36
2022-09-15T21:58:09.685Z,12.38
2022-09-15T22:00:36.933Z,12.31
2022-09-15T22:03:31.638Z,12.35
2022-09-15T22:05:58.703Z,12.41
2022-09-15T22:08:26.562Z,12.38
2022-09-15T22:10:59.260Z,12.39
2022-09-15T22:13:28.092Z,12.29
2022-09-15T22:16:06.380Z,12.32
2022-09-15T22:18:44.321Z,12.25
2022-09-15T22:21:12.821Z,12.18
2022-09-15T22:23:41.538Z,12.25
2022-09-15T22:26:11.775Z,12.26
2022-09-15T22:28:39.550Z,12.20
2022-09-15T22:31:08.728Z,12.24
2022-09-15T22:33:43.723Z,12.20
2022-09-15T22:39:06.757Z,12.26
2022-09-15T22:41:41.989Z,12.14
2022-09-15T22:44:23.154Z,12.18
2022-09-15T22:47:16.772Z,12.20
2022-09-15T22:49:44.684Z,12.09
2022-09-15T22:52:13.305Z,12.08
2022-09-15T22:54:40.487Z,12.06
2022-09-15T22:57:12.581Z,12.11
2022-09-15T22:59:40.520Z,12.11
2022-09-15T23:02:08.614Z,12.08
2022-09-15T23:05:00.556Z,12.06
2022-09-15T23:10:20.595Z,12.06
2022-09-15T23:12:48.636Z,11.98
2022-09-15T23:15:20.711Z,11.97
2022-09-15T23:17:48.732Z,11.97
2022-09-15T23:20:42.526Z,11.95
2022-09-15T23:23:11.114Z,11.95
2022-09-15T23:25:44.675Z,12.02
2022-09-15T23:28:39.281Z,11.91
2022-09-15T23:31:07.777Z,11.93
2022-09-15T23:34:00.788Z,11.88
2022-09-15T23:36:28.763Z,11.77
2022-09-15T23:39:00.740Z,11.88
2022-09-15T23:41:57.857Z,11.80
2022-09-15T23:44:24.731Z,11.63
2022-09-15T23:46:52.584Z,11.87
2022-09-15T23:49:24.513Z,11.77
2022-09-15T23:52:16.733Z,11.71
2022-09-15T23:54:49.625Z,11.74
2022-09-15T23:57:16.605Z,11.73
2022-09-15T23:59:44.590Z,11.70
